Sunbury, United Kingdom
Current Conditions -  °F | °C
As of 10:20 PM on Sunday 25 Jan 2015 (Local Time) from EGLL Reporting Station
Broken Clouds Broken Clouds  
Wind Chill: 41°   Ceiling: 1300
Heat Index: 46°   Visibility: 6mi
Dew Point: 43°   Wind: 12mph
Humidity: 87%   Direction: 240°WSW
Pressure: 30.3"   Gusts: NA
Location:  51.41°N, 0.41°W
Report Text: EGLL 252220Z 24010KT 9999 BKN013 08/06 Q1026 TEMPO BKN009
Loading
Personal Weather Stations






























Interactive Weather Map New forecast layout! Learn more

10-Day Weather Forecast

Advertisements
Track Severe Weather on mobile